createdAt,value
2018-06-22T00:02:02.371Z,13.00
2018-06-22T00:04:31.662Z,12.90
2018-06-22T00:07:00.891Z,12.90
2018-06-22T00:09:30.131Z,12.80
2018-06-22T00:11:59.426Z,12.90
2018-06-22T00:16:57.594Z,12.90
2018-06-22T00:19:27.352Z,12.90
2018-06-22T00:21:56.651Z,12.70
2018-06-22T00:26:54.924Z,12.50
2018-06-22T00:29:24.225Z,12.50
2018-06-22T00:31:53.547Z,12.60
2018-06-22T00:34:23.214Z,12.60
2018-06-22T00:36:52.572Z,12.60
2018-06-22T00:39:22.252Z,12.50
2018-06-22T00:41:51.718Z,12.60
2018-06-22T00:44:21.206Z,12.60
2018-06-22T00:46:50.558Z,12.60
2018-06-22T00:49:19.759Z,12.60
2018-06-22T00:51:49.052Z,12.50
2018-06-22T00:54:18.795Z,12.40
2018-06-22T00:56:48.048Z,12.30
2018-06-22T00:59:17.295Z,12.30
2018-06-22T01:01:46.834Z,12.30
2018-06-22T01:04:16.192Z,12.20
2018-06-22T01:06:45.493Z,12.20
2018-06-22T01:09:14.791Z,12.20
2018-06-22T01:11:43.979Z,12.30
2018-06-22T01:14:13.172Z,12.30
2018-06-22T01:16:42.460Z,12.40
2018-06-22T01:19:12.032Z,12.30
2018-06-22T01:21:41.852Z,12.30
2018-06-22T01:24:11.287Z,12.40
2018-06-22T01:26:40.533Z,12.50
2018-06-22T01:29:16.011Z,12.50
2018-06-22T01:31:45.174Z,12.40
2018-06-22T01:34:14.411Z,12.40
2018-06-22T01:36:43.711Z,12.40
2018-06-22T01:39:12.936Z,12.40
2018-06-22T01:41:42.221Z,12.50
2018-06-22T01:44:11.453Z,12.40
2018-06-22T01:46:40.643Z,12.40
2018-06-22T01:49:09.914Z,12.50
2018-06-22T01:51:39.151Z,12.50
2018-06-22T01:54:08.386Z,12.50
2018-06-22T01:56:37.845Z,12.40
2018-06-22T01:59:07.228Z,12.30
2018-06-22T02:01:36.895Z,12.30
2018-06-22T02:04:06.225Z,12.30
2018-06-22T02:06:35.456Z,12.20
2018-06-22T02:09:08.949Z,12.20
2018-06-22T02:11:38.360Z,12.20
2018-06-22T02:14:07.600Z,12.20
2018-06-22T02:16:37.240Z,12.20
2018-06-22T02:19:06.441Z,12.10
2018-06-22T02:24:04.505Z,11.90
2018-06-22T02:26:33.715Z,11.80
2018-06-22T02:29:02.921Z,11.90
2018-06-22T02:34:01.343Z,11.80
2018-06-22T02:38:59.632Z,11.70
2018-06-22T02:41:28.839Z,11.80
2018-06-22T02:43:58.055Z,11.80
2018-06-22T02:46:27.433Z,11.80
2018-06-22T02:48:56.632Z,11.70
2018-06-22T02:51:25.805Z,11.80
2018-06-22T02:53:55.054Z,11.80
2018-06-22T02:56:24.353Z,11.90
2018-06-22T02:58:53.801Z,12.10
2018-06-22T03:01:23.347Z,12.10
2018-06-22T03:03:52.546Z,12.10
2018-06-22T03:06:21.769Z,12.20
2018-06-22T03:08:50.999Z,12.10
2018-06-22T03:11:20.254Z,12.20
2018-06-22T03:13:49.592Z,12.20
2018-06-22T03:16:18.985Z,12.20
2018-06-22T03:18:48.284Z,12.20
2018-06-22T03:21:17.716Z,12.20
2018-06-22T03:23:46.964Z,12.30
2018-06-22T03:26:16.180Z,12.30
2018-06-22T03:28:45.465Z,12.20
2018-06-22T03:31:14.882Z,12.30
2018-06-22T03:33:44.104Z,12.40
2018-06-22T03:36:13.403Z,12.40
2018-06-22T03:38:42.892Z,12.30
2018-06-22T03:41:12.237Z,12.30
2018-06-22T03:46:10.273Z,12.40
2018-06-22T03:48:39.672Z,12.50
2018-06-22T03:51:08.874Z,12.50
2018-06-22T03:53:38.482Z,12.50
2018-06-22T03:56:08.142Z,12.50
2018-06-22T03:58:37.919Z,12.50
2018-06-22T04:01:07.127Z,12.50
2018-06-22T04:03:36.592Z,12.50
2018-06-22T04:06:06.025Z,12.50
2018-06-22T04:08:35.371Z,12.40
2018-06-22T04:11:04.968Z,12.40
2018-06-22T04:13:34.296Z,12.40
2018-06-22T04:16:03.539Z,12.30
2018-06-22T04:18:32.909Z,12.20
2018-06-22T04:21:02.096Z,12.00
2018-06-22T04:23:31.483Z,11.90
2018-06-22T04:26:00.704Z,11.80
2018-06-22T04:28:30.067Z,11.80
2018-06-22T04:30:59.283Z,11.80
2018-06-22T04:33:28.540Z,11.80
2018-06-22T04:35:57.713Z,11.80
2018-06-22T04:38:26.912Z,11.80
2018-06-22T04:40:56.220Z,11.80
2018-06-22T04:43:25.630Z,11.80
2018-06-22T04:45:54.931Z,11.80
2018-06-22T04:48:24.194Z,11.90
2018-06-22T04:50:53.718Z,11.90
2018-06-22T04:53:23.043Z,11.90
2018-06-22T04:55:52.348Z,11.80
2018-06-22T04:58:21.705Z,12.00
2018-06-22T05:00:50.932Z,12.00
2018-06-22T05:05:53.933Z,12.10
2018-06-22T05:08:23.284Z,12.20
2018-06-22T05:10:52.555Z,12.30
2018-06-22T05:13:21.831Z,12.40
2018-06-22T05:15:51.200Z,12.40
2018-06-22T05:18:20.501Z,12.40
2018-06-22T05:20:49.955Z,12.40
2018-06-22T05:23:19.220Z,12.40
2018-06-22T05:25:48.585Z,12.40
2018-06-22T05:28:18.109Z,12.40
2018-06-22T05:30:47.535Z,12.40
2018-06-22T05:33:16.739Z,12.30
2018-06-22T05:35:46.728Z,12.40
2018-06-22T05:38:15.959Z,12.50
2018-06-22T05:40:45.730Z,12.50
2018-06-22T05:43:14.976Z,12.60
2018-06-22T05:45:44.220Z,12.60
2018-06-22T05:48:13.491Z,12.70
2018-06-22T05:50:42.781Z,12.80
2018-06-22T05:53:12.164Z,12.90
2018-06-22T05:55:41.376Z,12.90
2018-06-22T05:58:10.593Z,12.80
2018-06-22T06:00:39.772Z,12.90
2018-06-22T06:05:37.856Z,13.00
2018-06-22T06:08:07.085Z,13.00
2018-06-22T06:10:36.351Z,13.10
2018-06-22T06:13:05.874Z,13.20
2018-06-22T06:15:35.054Z,13.30
2018-06-22T06:18:04.456Z,13.40
2018-06-22T06:20:33.843Z,13.40
2018-06-22T06:23:04.121Z,13.50
2018-06-22T06:25:33.402Z,13.60
2018-06-22T06:28:02.637Z,13.70
2018-06-22T06:30:32.292Z,13.60
2018-06-22T06:33:01.612Z,13.60
2018-06-22T06:35:30.809Z,13.60
2018-06-22T06:38:00.235Z,13.70
2018-06-22T06:40:29.410Z,13.70
2018-06-22T06:42:58.704Z,13.80
2018-06-22T06:45:28.048Z,13.90
2018-06-22T06:47:57.328Z,13.90
2018-06-22T06:50:26.662Z,13.80
2018-06-22T06:52:55.908Z,13.90
2018-06-22T06:55:25.225Z,13.90
2018-06-22T06:57:54.409Z,13.90
2018-06-22T07:00:23.709Z,13.90
2018-06-22T07:05:22.898Z,13.80
2018-06-22T07:07:52.356Z,13.80
2018-06-22T07:10:21.583Z,13.80
2018-06-22T07:12:50.783Z,13.80
2018-06-22T07:15:21.687Z,13.80
2018-06-22T07:17:51.024Z,13.70
2018-06-22T07:20:21.024Z,13.80
2018-06-22T07:22:50.311Z,13.90
2018-06-22T07:25:19.527Z,14.00
2018-06-22T07:27:48.847Z,14.10
2018-06-22T07:30:18.162Z,14.20
2018-06-22T07:32:47.425Z,14.20
2018-06-22T07:35:16.792Z,14.20
2018-06-22T07:37:45.994Z,14.20
2018-06-22T07:40:15.429Z,14.20
2018-06-22T07:42:44.672Z,14.30
2018-06-22T07:45:13.921Z,14.30
2018-06-22T07:47:43.472Z,14.30
2018-06-22T07:50:12.704Z,14.30
2018-06-22T07:52:41.930Z,14.40
2018-06-22T07:55:11.146Z,14.40
2018-06-22T07:57:40.456Z,14.40
2018-06-22T08:00:09.704Z,14.50
2018-06-22T08:02:39.128Z,14.50
2018-06-22T08:05:08.419Z,14.60
2018-06-22T08:07:37.725Z,14.60
2018-06-22T08:10:07.339Z,14.60
2018-06-22T08:12:36.664Z,14.50
2018-06-22T08:15:06.146Z,14.50
2018-06-22T08:17:35.411Z,14.40
2018-06-22T08:22:34.663Z,14.30
2018-06-22T08:25:03.894Z,14.40
2018-06-22T08:27:33.159Z,14.40
2018-06-22T08:30:02.498Z,14.40
2018-06-22T08:32:31.976Z,14.30
2018-06-22T08:35:02.143Z,14.20
2018-06-22T08:37:31.354Z,14.20
2018-06-22T08:40:01.198Z,14.20
2018-06-22T08:42:30.420Z,14.20
2018-06-22T08:45:00.424Z,14.20
2018-06-22T08:47:29.628Z,14.30
2018-06-22T08:49:58.888Z,14.30
2018-06-22T08:52:28.599Z,14.30
2018-06-22T08:54:57.759Z,14.30
2018-06-22T08:57:27.088Z,14.50
2018-06-22T08:59:56.641Z,14.60
2018-06-22T09:02:25.998Z,14.70
2018-06-22T09:04:55.404Z,14.70
2018-06-22T09:07:24.861Z,14.70
2018-06-22T09:09:54.290Z,14.70
2018-06-22T09:12:23.568Z,14.80
2018-06-22T09:14:53.121Z,14.80
2018-06-22T09:17:22.335Z,14.80
2018-06-22T09:19:51.572Z,14.70
2018-06-22T09:22:21.244Z,14.70
2018-06-22T09:24:50.504Z,14.70
2018-06-22T09:27:19.857Z,14.70
2018-06-22T09:29:49.052Z,14.70
2018-06-22T09:32:18.345Z,14.70
2018-06-22T09:34:47.644Z,14.70
2018-06-22T09:37:17.418Z,14.60
2018-06-22T09:39:47.606Z,14.60
2018-06-22T09:42:16.919Z,14.60
2018-06-22T09:44:46.160Z,14.50
2018-06-22T09:47:15.458Z,14.60
2018-06-22T09:49:44.907Z,14.60
2018-06-22T09:52:14.692Z,14.50
2018-06-22T09:54:43.934Z,14.50
2018-06-22T09:57:13.156Z,14.40
2018-06-22T09:59:42.547Z,14.30
2018-06-22T10:02:11.968Z,14.40
2018-06-22T10:07:09.937Z,14.40
2018-06-22T10:09:39.132Z,14.50
2018-06-22T10:12:08.666Z,14.60
2018-06-22T10:14:38.012Z,14.60
2018-06-22T10:17:07.307Z,14.80
2018-06-22T10:19:36.644Z,14.90
2018-06-22T10:22:06.154Z,15.00
2018-06-22T10:24:35.384Z,15.30
2018-06-22T10:27:04.619Z,15.40
2018-06-22T10:29:33.849Z,15.50
2018-06-22T10:32:03.076Z,15.50
2018-06-22T10:34:32.484Z,15.50
2018-06-22T10:37:02.313Z,15.40
2018-06-22T10:39:31.945Z,15.50
2018-06-22T10:42:18.195Z,15.60
2018-06-22T10:44:48.037Z,15.60
2018-06-22T10:47:17.269Z,15.50
2018-06-22T10:49:46.531Z,15.60
2018-06-22T10:54:44.528Z,15.70
2018-06-22T10:57:13.760Z,15.80
2018-06-22T10:59:43.060Z,15.90
2018-06-22T11:02:12.559Z,16.20
2018-06-22T11:04:41.853Z,16.20
2018-06-22T11:07:11.321Z,16.30
2018-06-22T11:09:40.574Z,16.30
2018-06-22T11:12:10.028Z,16.20
2018-06-22T11:14:39.358Z,16.10
2018-06-22T11:17:08.913Z,15.80
2018-06-22T11:19:38.439Z,15.60
2018-06-22T11:24:36.682Z,15.10
2018-06-22T11:27:06.111Z,14.90
2018-06-22T11:29:35.504Z,14.90
2018-06-22T11:32:04.763Z,15.00
2018-06-22T11:34:33.972Z,15.10
2018-06-22T11:37:03.241Z,15.40
2018-06-22T11:39:32.567Z,15.80
2018-06-22T11:42:01.769Z,16.10
2018-06-22T11:44:31.039Z,16.20
2018-06-22T11:47:00.394Z,16.30
2018-06-22T11:49:29.571Z,16.40
2018-06-22T11:51:58.935Z,16.50
2018-06-22T11:54:28.244Z,16.60
2018-06-22T11:56:57.533Z,16.70
2018-06-22T11:59:26.751Z,16.70
2018-06-22T12:01:55.991Z,16.60
2018-06-22T12:04:25.288Z,16.60
2018-06-22T12:06:54.538Z,16.80
2018-06-22T12:09:23.743Z,17.00
2018-06-22T12:11:53.113Z,17.00
2018-06-22T12:16:51.140Z,16.60
2018-06-22T12:19:20.830Z,16.50
2018-06-22T12:21:49.996Z,16.50
2018-06-22T12:24:19.520Z,16.50
2018-06-22T12:26:49.040Z,16.40
2018-06-22T12:29:18.839Z,16.20
2018-06-22T12:31:48.087Z,15.90
2018-06-22T12:34:17.387Z,15.70
2018-06-22T12:36:46.927Z,15.30
2018-06-22T12:39:16.331Z,15.10
2018-06-22T12:41:45.699Z,15.00
2018-06-22T12:44:14.948Z,14.90
2018-06-22T12:46:44.184Z,15.00
2018-06-22T12:49:13.380Z,15.20
2018-06-22T12:51:42.681Z,15.40
2018-06-22T12:54:12.121Z,15.80
2018-06-22T12:56:41.363Z,16.60
2018-06-22T13:01:39.524Z,17.50
2018-06-22T13:04:09.305Z,17.60
2018-06-22T13:06:38.728Z,17.80
2018-06-22T13:09:09.788Z,18.20
2018-06-22T13:11:39.031Z,18.60
2018-06-22T13:14:09.324Z,18.80
2018-06-22T13:16:38.733Z,18.50
2018-06-22T13:19:07.933Z,17.90
2018-06-22T13:21:53.104Z,17.70
2018-06-22T13:24:24.511Z,17.50
2018-06-22T13:26:53.823Z,17.50
2018-06-22T13:29:23.143Z,17.50
2018-06-22T13:31:52.506Z,17.90
2018-06-22T13:34:21.727Z,18.40
2018-06-22T13:36:51.018Z,18.60
2018-06-22T13:39:20.216Z,18.60
2018-06-22T13:41:49.407Z,18.40
2018-06-22T13:44:18.591Z,18.30
2018-06-22T13:46:47.907Z,18.40
2018-06-22T13:51:45.988Z,19.40
2018-06-22T13:54:15.409Z,19.80
2018-06-22T13:56:45.143Z,19.80
2018-06-22T13:59:14.459Z,19.30
2018-06-22T14:01:43.828Z,18.90
2018-06-22T14:04:18.598Z,18.50
2018-06-22T14:06:51.218Z,18.40
2018-06-22T14:09:20.579Z,18.70
2018-06-22T14:11:49.891Z,18.80
2018-06-22T14:14:19.131Z,18.80
2018-06-22T14:16:48.358Z,18.80
2018-06-22T14:19:17.753Z,18.90
2018-06-22T14:21:47.000Z,19.00
2018-06-22T14:24:16.383Z,19.20
2018-06-22T14:26:45.664Z,19.50
2018-06-22T14:29:15.045Z,19.60
2018-06-22T14:31:44.415Z,19.80
2018-06-22T14:34:13.792Z,19.70
2018-06-22T14:36:43.096Z,20.00
2018-06-22T14:39:12.700Z,20.00
2018-06-22T14:41:41.960Z,20.00
2018-06-22T14:44:11.153Z,20.10
2018-06-22T14:46:40.507Z,20.30
2018-06-22T14:49:09.744Z,20.10
2018-06-22T14:51:38.971Z,20.00
2018-06-22T14:55:11.552Z,20.10
2018-06-22T14:57:46.498Z,20.00
2018-06-22T15:00:20.894Z,20.20
2018-06-22T15:02:55.307Z,20.20
2018-06-22T15:05:29.828Z,20.30
2018-06-22T15:08:01.465Z,20.30
2018-06-22T15:10:30.759Z,20.40
2018-06-22T15:13:00.276Z,20.20
2018-06-22T15:15:29.486Z,20.10
2018-06-22T15:20:27.866Z,19.80
2018-06-22T15:22:57.456Z,19.80
2018-06-22T15:25:26.981Z,19.80
2018-06-22T15:27:56.395Z,19.70
2018-06-22T15:30:25.665Z,19.70
2018-06-22T15:32:54.934Z,19.60
2018-06-22T15:35:29.597Z,19.70
2018-06-22T15:38:04.086Z,19.50
2018-06-22T15:40:38.676Z,19.60
2018-06-22T15:43:13.284Z,19.60
2018-06-22T15:45:47.819Z,19.60
2018-06-22T15:48:22.680Z,19.60
2018-06-22T15:50:57.529Z,19.50
2018-06-22T15:53:32.283Z,19.20
2018-06-22T15:56:07.903Z,19.00
2018-06-22T15:58:37.459Z,18.70
2018-06-22T16:01:07.060Z,18.60
2018-06-22T16:03:41.738Z,18.40
2018-06-22T16:06:11.384Z,18.30
2018-06-22T16:13:40.095Z,18.10
2018-06-22T16:16:14.619Z,18.20
2018-06-22T16:21:23.621Z,18.30
2018-06-22T16:23:58.109Z,18.20
2018-06-22T16:26:32.987Z,18.00
2018-06-22T16:29:02.608Z,18.10
2018-06-22T16:31:31.926Z,18.20
2018-06-22T16:34:01.293Z,18.20
2018-06-22T16:36:30.583Z,18.10
2018-06-22T16:39:00.183Z,18.00
2018-06-22T16:41:29.367Z,17.90
2018-06-22T16:43:58.601Z,17.70
2018-06-22T16:46:28.118Z,17.60
2018-06-22T16:48:57.328Z,17.60
2018-06-22T16:51:26.752Z,17.60
2018-06-22T16:53:56.244Z,17.50
2018-06-22T16:58:55.431Z,17.50
2018-06-22T17:01:24.685Z,17.50
2018-06-22T17:03:53.887Z,17.70
2018-06-22T17:06:23.270Z,17.70
2018-06-22T17:08:57.808Z,17.80
2018-06-22T17:12:35.572Z,17.80
2018-06-22T17:15:10.120Z,17.80
2018-06-22T17:17:44.768Z,17.60
2018-06-22T17:20:14.051Z,17.50
2018-06-22T17:22:44.524Z,17.50
2018-06-22T17:25:14.369Z,17.50
2018-06-22T17:27:47.202Z,17.40
2018-06-22T17:30:16.664Z,17.30
2018-06-22T17:32:47.685Z,17.30
2018-06-22T17:35:16.883Z,17.50
2018-06-22T17:37:46.470Z,17.50
2018-06-22T17:40:16.007Z,17.60
2018-06-22T17:42:45.735Z,17.50
2018-06-22T17:45:15.057Z,17.40
2018-06-22T17:47:44.560Z,17.30
2018-06-22T17:50:19.011Z,17.20
2018-06-22T17:52:48.539Z,17.20
2018-06-22T17:55:17.768Z,17.20
2018-06-22T17:57:47.202Z,17.20
2018-06-22T18:00:21.741Z,17.30
2018-06-22T18:02:56.384Z,17.30
2018-06-22T18:08:00.040Z,17.10
2018-06-22T18:10:34.940Z,16.90
2018-06-22T18:13:04.377Z,16.90
2018-06-22T18:15:33.679Z,16.80
2018-06-22T18:18:02.929Z,16.80
2018-06-22T18:20:32.421Z,16.70
2018-06-22T18:23:01.682Z,16.70
2018-06-22T18:25:31.171Z,16.60
2018-06-22T18:28:00.569Z,16.60
2018-06-22T18:30:30.013Z,16.60
2018-06-22T18:32:59.857Z,16.50
2018-06-22T18:35:29.378Z,16.50
2018-06-22T18:37:58.861Z,16.50
2018-06-22T18:40:28.419Z,16.50
2018-06-22T18:45:26.862Z,16.40
2018-06-22T18:47:56.197Z,16.40
2018-06-22T18:50:25.850Z,16.30
2018-06-22T18:53:00.436Z,16.30
2018-06-22T18:55:35.526Z,16.30
2018-06-22T18:58:10.041Z,16.30
2018-06-22T19:00:44.723Z,16.30
2018-06-22T19:03:19.331Z,16.30
2018-06-22T19:05:48.584Z,16.30
2018-06-22T19:08:18.048Z,16.30
2018-06-22T19:10:47.252Z,16.20
2018-06-22T19:13:16.513Z,16.20
2018-06-22T19:15:45.725Z,16.10
2018-06-22T19:18:15.052Z,16.10
2018-06-22T19:20:45.023Z,16.10
2018-06-22T19:23:14.341Z,16.10
2018-06-22T19:25:43.691Z,16.10
2018-06-22T19:28:13.055Z,16.00
2018-06-22T19:30:43.243Z,16.00
2018-06-22T19:33:12.574Z,16.00
2018-06-22T19:35:41.759Z,16.00
2018-06-22T19:38:10.976Z,15.90
2018-06-22T19:40:41.146Z,15.80
2018-06-22T19:43:15.634Z,15.70
2018-06-22T19:46:48.125Z,15.70
2018-06-22T19:50:23.332Z,15.60
2018-06-22T19:52:57.940Z,15.70
2018-06-22T19:57:56.213Z,15.60
2018-06-22T20:00:25.409Z,15.60
2018-06-22T20:02:54.896Z,15.50
2018-06-22T20:05:24.260Z,15.50
2018-06-22T20:07:53.496Z,15.50
2018-06-22T20:10:22.881Z,15.40
2018-06-22T20:12:52.068Z,15.40
2018-06-22T20:15:23.787Z,15.40
2018-06-22T20:17:54.454Z,15.40
2018-06-22T20:20:23.731Z,15.50
2018-06-22T20:22:52.977Z,15.40
2018-06-22T20:25:27.519Z,15.50
2018-06-22T20:27:56.840Z,15.50
2018-06-22T20:30:26.534Z,15.50
2018-06-22T20:32:55.760Z,15.50
2018-06-22T20:35:30.644Z,15.50
2018-06-22T20:38:05.891Z,15.50
2018-06-22T20:40:40.552Z,15.50
2018-06-22T20:45:48.375Z,15.50
2018-06-22T20:48:23.199Z,15.30
2018-06-22T20:50:52.433Z,15.30
2018-06-22T20:53:21.644Z,15.30
2018-06-22T20:55:50.911Z,15.30
2018-06-22T20:58:20.536Z,15.30
2018-06-22T21:00:50.947Z,15.20
2018-06-22T21:03:20.647Z,15.20
2018-06-22T21:05:49.839Z,15.20
2018-06-22T21:08:19.460Z,15.20
2018-06-22T21:10:48.666Z,15.20
2018-06-22T21:13:17.889Z,15.20
2018-06-22T21:15:47.220Z,15.20
2018-06-22T21:18:16.375Z,15.20
2018-06-22T21:20:51.079Z,15.10
2018-06-22T21:23:20.384Z,15.00
2018-06-22T21:25:51.704Z,15.00
2018-06-22T21:28:26.233Z,14.90
2018-06-22T21:31:00.759Z,14.90
2018-06-22T21:33:35.545Z,14.90
2018-06-22T21:36:10.942Z,14.90
2018-06-22T21:38:45.392Z,14.80
2018-06-22T21:41:14.633Z,14.70
2018-06-22T21:43:43.920Z,14.70
2018-06-22T21:46:13.361Z,14.60
2018-06-22T21:48:42.652Z,14.50
2018-06-22T21:51:11.936Z,14.60
2018-06-22T21:53:41.575Z,14.50
2018-06-22T21:56:10.496Z,14.50
2018-06-22T21:58:39.883Z,14.50
2018-06-22T22:01:10.186Z,14.40
2018-06-22T22:03:39.408Z,14.40
2018-06-22T22:06:08.804Z,14.40
2018-06-22T22:08:38.002Z,14.40
2018-06-22T22:11:08.795Z,14.30
2018-06-22T22:13:39.084Z,14.30
2018-06-22T22:16:09.356Z,14.30
2018-06-22T22:18:38.636Z,14.30
2018-06-22T22:21:08.179Z,14.30
2018-06-22T22:23:37.478Z,14.30
2018-06-22T22:26:06.681Z,14.40
2018-06-22T22:28:35.903Z,14.30
2018-06-22T22:31:05.483Z,14.30
2018-06-22T22:33:34.877Z,14.20
2018-06-22T22:36:04.747Z,14.30
2018-06-22T22:38:33.948Z,14.30
2018-06-22T22:41:03.195Z,14.30
2018-06-22T22:43:32.405Z,14.30
2018-06-22T22:46:01.761Z,14.30
2018-06-22T22:48:30.967Z,14.30
2018-06-22T22:51:00.157Z,14.30
2018-06-22T22:53:29.352Z,14.30
2018-06-22T22:55:58.555Z,14.30
2018-06-22T22:58:27.747Z,14.30
2018-06-22T23:00:57.370Z,14.20
2018-06-22T23:03:26.729Z,14.20
2018-06-22T23:05:55.930Z,14.20
2018-06-22T23:08:25.200Z,14.10
2018-06-22T23:10:54.570Z,14.10
2018-06-22T23:13:23.891Z,14.00
2018-06-22T23:15:53.198Z,14.10
2018-06-22T23:18:22.560Z,14.00
2018-06-22T23:20:51.883Z,14.10
2018-06-22T23:23:33.821Z,13.90
2018-06-22T23:26:03.681Z,13.90
2018-06-22T23:28:33.193Z,14.00
2018-06-22T23:31:04.419Z,13.90
2018-06-22T23:33:34.054Z,13.90
2018-06-22T23:36:04.153Z,13.90
2018-06-22T23:38:33.766Z,13.80
2018-06-22T23:43:33.227Z,13.80
2018-06-22T23:46:02.630Z,13.60
2018-06-22T23:48:31.880Z,13.60
2018-06-22T23:51:01.100Z,13.50
2018-06-22T23:53:30.328Z,13.50
2018-06-22T23:55:59.616Z,13.60
2018-06-22T23:58:28.993Z,13.60
